createdAt,value
2018-11-22T12:17:46.875Z,39.77
2018-11-22T12:20:16.252Z,40.06
2018-11-22T12:22:46.105Z,40.60
2018-11-22T12:25:20.888Z,39.66
2018-11-22T12:27:51.020Z,39.13
2018-11-22T12:30:25.342Z,39.23
2018-11-22T12:33:00.366Z,38.66
2018-11-22T12:35:34.496Z,38.64
2018-11-22T12:38:08.612Z,39.39
2018-11-22T12:40:37.603Z,39.14
2018-11-22T12:43:05.809Z,38.82
2018-11-22T12:45:34.243Z,38.82
2018-11-22T12:48:02.741Z,38.95
2018-11-22T12:50:31.194Z,38.05
2018-11-22T12:52:59.602Z,38.59
2018-11-22T12:55:28.148Z,38.10
2018-11-22T12:57:56.594Z,37.40
2018-11-22T13:00:25.030Z,37.97
2018-11-22T13:02:53.436Z,36.81
2018-11-22T13:05:21.821Z,37.19
2018-11-22T13:07:50.301Z,37.19
2018-11-22T13:10:19.259Z,37.03
2018-11-22T13:12:48.671Z,36.99
2018-11-22T13:15:18.511Z,36.81
2018-11-22T13:17:47.093Z,35.96
2018-11-22T13:20:16.901Z,36.82
2018-11-22T13:22:45.351Z,36.99
2018-11-22T13:25:15.387Z,36.25
2018-11-22T13:27:43.889Z,35.98
2018-11-22T13:30:15.674Z,35.82
2018-11-22T13:32:48.866Z,36.39
2018-11-22T13:35:18.381Z,35.69
2018-11-22T13:37:48.041Z,35.19
2018-11-22T13:40:16.719Z,35.24
2018-11-22T13:42:46.259Z,35.30
2018-11-22T13:45:17.837Z,35.64
2018-11-22T13:47:47.470Z,35.63
2018-11-22T13:50:22.576Z,35.68
2018-11-22T13:52:52.634Z,35.62
2018-11-22T13:55:21.090Z,35.04
2018-11-22T13:57:49.579Z,34.84
2018-11-22T14:00:23.672Z,34.81
2018-11-22T14:02:53.643Z,34.75
2018-11-22T14:05:22.110Z,34.76
2018-11-22T14:07:50.552Z,35.46
2018-11-22T14:10:20.169Z,35.06
2018-11-22T14:12:48.894Z,36.09
2018-11-22T14:15:19.335Z,36.01
2018-11-22T14:17:48.648Z,35.38
2018-11-22T14:20:18.565Z,36.26
2018-11-22T14:22:46.973Z,35.64
2018-11-22T14:25:15.927Z,36.32
2018-11-22T14:27:45.304Z,35.73
2018-11-22T14:30:15.210Z,35.49
2018-11-22T14:32:44.335Z,35.85
2018-11-22T14:35:14.157Z,36.83
2018-11-22T14:37:43.121Z,36.74
2018-11-22T14:40:15.218Z,35.98
2018-11-22T14:42:44.408Z,36.07
2018-11-22T14:45:13.807Z,36.17
2018-11-22T14:47:43.216Z,36.91
2018-11-22T14:50:20.068Z,36.87
2018-11-22T14:52:58.037Z,36.98
2018-11-22T14:55:26.476Z,36.83
2018-11-22T14:57:54.906Z,36.89
2018-11-22T15:00:23.400Z,37.59
2018-11-22T15:02:51.797Z,37.31
2018-11-22T15:05:20.246Z,37.37
2018-11-22T15:07:48.746Z,37.71
2018-11-22T15:10:17.527Z,37.50
2018-11-22T15:12:46.866Z,37.83
2018-11-22T15:15:20.074Z,38.37
2018-11-22T15:17:48.530Z,37.78
2018-11-22T15:20:18.154Z,38.13
2018-11-22T15:22:47.459Z,38.30
2018-11-22T15:25:17.470Z,38.78
2018-11-22T15:27:46.008Z,39.04
2018-11-22T15:30:16.738Z,39.34
2018-11-22T15:32:45.207Z,39.28
2018-11-22T15:35:14.991Z,39.06
2018-11-22T15:37:43.672Z,39.81
2018-11-22T15:40:15.517Z,40.07
2018-11-22T15:42:44.841Z,40.15
2018-11-22T15:45:14.676Z,39.79
2018-11-22T15:47:43.572Z,40.44
2018-11-22T15:50:13.465Z,40.77
2018-11-22T15:52:42.316Z,40.85
2018-11-22T15:55:11.339Z,40.74
2018-11-22T15:57:40.533Z,41.36
2018-11-22T16:00:14.977Z,40.76
2018-11-22T16:02:47.654Z,41.41
2018-11-22T16:05:16.632Z,41.54
2018-11-22T16:07:45.025Z,41.98
2018-11-22T16:10:17.614Z,41.65
2018-11-22T16:12:47.103Z,41.63
2018-11-22T16:15:20.994Z,41.70
2018-11-22T16:17:49.640Z,42.08
2018-11-22T16:20:18.097Z,41.99
2018-11-22T16:22:46.926Z,42.68
2018-11-22T16:25:15.444Z,42.67
2018-11-22T16:27:43.868Z,42.66
2018-11-22T16:30:17.620Z,42.73
2018-11-22T16:32:46.143Z,42.90
2018-11-22T16:35:15.952Z,42.94
2018-11-22T16:37:44.845Z,42.85
2018-11-22T16:40:15.892Z,43.12
2018-11-22T16:42:45.682Z,43.28
2018-11-22T16:45:19.932Z,43.58
2018-11-22T16:47:48.465Z,43.27
2018-11-22T16:50:18.710Z,43.53
2018-11-22T16:52:47.129Z,43.56
2018-11-22T16:55:15.867Z,43.91
2018-11-22T16:57:45.499Z,43.61
2018-11-22T17:00:17.126Z,43.88
2018-11-22T17:02:46.546Z,43.96
2018-11-22T17:05:15.461Z,44.16
2018-11-22T17:07:44.469Z,44.32
2018-11-22T17:10:15.422Z,44.22
2018-11-22T17:12:44.658Z,44.45
2018-11-22T17:15:14.810Z,44.60
2018-11-22T17:17:43.801Z,44.62
2018-11-22T17:20:14.015Z,44.90
2018-11-22T17:22:43.131Z,44.84
2018-11-22T17:25:14.603Z,45.18
2018-11-22T17:27:43.792Z,45.41
2018-11-22T17:30:17.051Z,45.44
2018-11-22T17:32:45.860Z,45.80
2018-11-22T17:35:18.275Z,45.51
2018-11-22T17:37:46.798Z,45.62
2018-11-22T17:40:34.389Z,45.49
2018-11-22T17:43:02.849Z,45.49
2018-11-22T17:45:33.652Z,45.98
2018-11-22T17:48:02.539Z,45.89
2018-11-22T17:50:33.405Z,45.94
2018-11-22T17:53:02.298Z,45.86
2018-11-22T17:55:31.562Z,45.86
2018-11-22T17:58:01.335Z,45.93
2018-11-22T18:00:34.245Z,45.92
2018-11-22T18:03:03.573Z,46.24
2018-11-22T18:05:32.350Z,45.89
2018-11-22T18:08:01.308Z,46.05
2018-11-22T18:10:31.115Z,46.18
2018-11-22T18:13:00.062Z,46.25
2018-11-22T18:15:30.444Z,46.12
2018-11-22T18:17:59.105Z,46.48
2018-11-22T18:20:29.089Z,46.68
2018-11-22T18:22:59.122Z,46.90
2018-11-22T18:25:29.116Z,46.52
2018-11-22T18:27:57.826Z,46.57
2018-11-22T18:30:29.572Z,46.70
2018-11-22T18:32:59.804Z,46.87
2018-11-22T18:35:34.613Z,47.09
2018-11-22T18:38:03.313Z,47.13
2018-11-22T18:40:33.426Z,46.87
2018-11-22T18:43:02.768Z,46.84
2018-11-22T18:45:33.371Z,47.47
2018-11-22T18:48:03.482Z,47.64
2018-11-22T18:50:32.993Z,47.92
2018-11-22T18:53:01.524Z,47.75
2018-11-22T18:55:29.982Z,47.58
2018-11-22T18:57:58.550Z,47.43
2018-11-22T19:00:28.274Z,47.48
2018-11-22T19:03:00.203Z,48.21
2018-11-22T19:05:28.781Z,48.19
2018-11-22T19:07:57.812Z,48.05
2018-11-22T19:10:27.765Z,48.18
2018-11-22T19:12:59.187Z,48.41
2018-11-22T19:15:29.183Z,48.35
2018-11-22T19:17:57.779Z,47.83
2018-11-22T19:20:29.287Z,47.96
2018-11-22T19:22:59.406Z,48.42
2018-11-22T19:25:27.892Z,48.72
2018-11-22T19:27:57.215Z,48.69
2018-11-22T19:30:37.112Z,48.67
2018-11-22T19:33:01.083Z,48.23
2018-11-22T19:35:30.855Z,48.41
2018-11-22T19:37:59.289Z,48.79
2018-11-22T19:40:29.643Z,48.81
2018-11-22T19:42:59.377Z,48.47
2018-11-22T19:45:29.402Z,48.42
2018-11-22T19:47:57.957Z,48.64
2018-11-22T19:50:27.517Z,48.71
2018-11-22T19:52:56.741Z,48.83
2018-11-22T19:55:26.533Z,48.96
2018-11-22T19:57:56.541Z,49.04
2018-11-22T20:00:25.724Z,48.97
2018-11-22T20:02:55.008Z,48.86
2018-11-22T20:05:24.528Z,49.03
2018-11-22T20:07:55.115Z,48.93
2018-11-22T20:10:25.801Z,49.23
2018-11-22T20:12:54.250Z,49.26
2018-11-22T20:15:22.851Z,49.51
2018-11-22T20:17:51.925Z,49.19
2018-11-22T20:20:21.171Z,48.76
2018-11-22T20:22:50.074Z,49.25
2018-11-22T20:25:18.609Z,49.92
2018-11-22T20:27:47.758Z,49.53
2018-11-22T20:30:29.796Z,49.91
2018-11-22T20:32:58.357Z,49.44
2018-11-22T20:35:27.196Z,49.76
2018-11-22T20:37:55.786Z,49.83
2018-11-22T20:40:25.387Z,50.08
2018-11-22T20:42:53.865Z,50.10
2018-11-22T20:45:23.691Z,49.88
2018-11-22T20:47:53.631Z,49.94
2018-11-22T20:50:23.411Z,50.50
2018-11-22T20:52:51.923Z,50.23
2018-11-22T20:55:24.031Z,50.54
2018-11-22T20:57:54.071Z,49.88
2018-11-22T21:00:23.926Z,50.36
2018-11-22T21:02:52.367Z,50.16
2018-11-22T21:05:22.051Z,50.63
2018-11-22T21:07:50.487Z,50.57
2018-11-22T21:10:21.270Z,50.34
2018-11-22T21:12:49.872Z,50.34
2018-11-22T21:15:21.643Z,50.74
2018-11-22T21:17:51.881Z,50.75
2018-11-22T21:20:22.233Z,50.30
2018-11-22T21:22:50.732Z,50.35
2018-11-22T21:25:20.124Z,50.63
2018-11-22T21:27:48.722Z,50.66
2018-11-22T21:30:21.799Z,50.64
2018-11-22T21:32:51.063Z,50.42
2018-11-22T21:35:20.144Z,50.71
2018-11-22T21:37:49.478Z,51.16
2018-11-22T21:40:22.778Z,50.75
2018-11-22T21:42:51.245Z,50.64
2018-11-22T21:45:21.265Z,50.58
2018-11-22T21:47:50.401Z,50.65
2018-11-22T21:50:20.310Z,50.53
2018-11-22T21:52:48.773Z,50.62
2018-11-22T21:55:18.790Z,51.28
2018-11-22T21:57:47.717Z,50.55
2018-11-22T22:00:25.140Z,50.86
2018-11-22T22:02:56.821Z,50.80
2018-11-22T22:05:25.370Z,50.98
2018-11-22T22:07:53.800Z,51.02
2018-11-22T22:10:22.344Z,51.00
2018-11-22T22:12:50.929Z,51.06
2018-11-22T22:15:21.249Z,51.45
2018-11-22T22:17:49.754Z,50.86
2018-11-22T22:20:20.045Z,51.28
2018-11-22T22:22:48.684Z,51.63
2018-11-22T22:25:18.739Z,51.20
2018-11-22T22:27:47.999Z,50.99
2018-11-22T22:30:20.673Z,50.93
2018-11-22T22:32:50.148Z,51.26
2018-11-22T22:35:18.639Z,51.15
2018-11-22T22:37:47.093Z,50.94
2018-11-22T22:40:17.037Z,51.96
2018-11-22T22:42:50.151Z,51.78
2018-11-22T22:45:19.643Z,51.01
2018-11-22T22:47:48.780Z,51.74
2018-11-22T22:50:19.364Z,51.56
2018-11-22T22:52:48.988Z,51.60
2018-11-22T22:55:17.426Z,51.36
2018-11-22T22:57:45.920Z,51.84
2018-11-22T23:00:30.767Z,51.20
2018-11-22T23:03:01.461Z,52.07
2018-11-22T23:05:30.707Z,51.28
2018-11-22T23:07:59.210Z,51.93
2018-11-22T23:10:27.759Z,51.38
2018-11-22T23:12:57.568Z,52.08
2018-11-22T23:15:27.044Z,51.67
2018-11-22T23:17:55.766Z,52.13
2018-11-22T23:20:25.727Z,51.63
2018-11-22T23:22:54.433Z,51.82
2018-11-22T23:25:23.944Z,51.46
2018-11-22T23:27:52.651Z,52.19
2018-11-22T23:30:26.232Z,51.51
2018-11-22T23:32:56.558Z,51.43
2018-11-22T23:35:24.732Z,52.23
2018-11-22T23:37:53.403Z,51.96
2018-11-22T23:40:23.225Z,51.81
2018-11-22T23:42:51.800Z,51.85
2018-11-22T23:45:21.409Z,51.45
2018-11-22T23:47:50.096Z,51.58
2018-11-22T23:50:19.800Z,51.80
2018-11-22T23:52:49.416Z,51.67
2018-11-22T23:55:17.887Z,52.20
2018-11-22T23:57:46.476Z,51.76
